Time;durP1;ratioP1;P1;durP2;ratioP2;P2;SDS_P1;SDS_P2;PMS_P1;PMS_P2;Temp;Humidity;BMP_temperature;BMP_pressure;BME280_temperature;BME280_humidity;BME280_pressure;Samples;Min_cycle;Max_cycle;Signal;HPM_P1;HPM_P2
2023/07/19 00:01:48;;;;;;;6.18;1.60;;;46.60;28.30;;;;;;4874872;29;20116;-66
2023/07/19 00:04:14;;;;;;;8.77;1.80;;;46.60;28.80;;;;;;4890753;29;20017;-65
2023/07/19 00:06:40;;;;;;;9.95;2.25;;;46.50;28.20;;;;;;4891420;29;20036;-66
2023/07/19 00:09:07;;;;;;;5.38;1.60;;;46.50;28.80;;;;;;4897382;29;20040;-65
2023/07/19 00:11:33;;;;;;;6.32;2.08;;;46.50;28.70;;;;;;4890700;29;20092;-66
2023/07/19 00:14:00;;;;;;;13.77;2.30;;;46.50;27.50;;;;;;4890166;29;20013;-65
2023/07/19 00:16:27;;;;;;;10.65;2.40;;;46.60;26.90;;;;;;4889907;29;21464;-67
2023/07/19 00:18:54;;;;;;;7.28;2.70;;;46.60;27.50;;;;;;4873570;29;20013;-65
2023/07/19 00:21:20;;;;;;;8.40;2.55;;;46.50;26.40;;;;;;4890547;29;20029;-66
2023/07/19 00:23:47;;;;;;;5.40;2.20;;;46.60;26.00;;;;;;4890448;29;20077;-66
2023/07/19 00:26:13;;;;;;;6.05;2.30;;;46.50;26.20;;;;;;4889700;29;20021;-66
2023/07/19 00:28:40;;;;;;;12.25;2.90;;;46.40;26.40;;;;;;4889675;29;20024;-66
2023/07/19 00:31:06;;;;;;;9.73;2.67;;;46.30;26.30;;;;;;4889360;29;20108;-65
2023/07/19 00:33:33;;;;;;;10.93;2.90;;;46.30;26.20;;;;;;4891791;29;20035;-65
2023/07/19 00:35:59;;;;;;;17.13;3.65;;;46.20;26.60;;;;;;4887926;29;20019;-67
2023/07/19 00:38:25;;;;;;;7.90;3.20;;;46.10;26.40;;;;;;4890446;29;20092;-67
2023/07/19 00:40:52;;;;;;;12.38;3.42;;;45.90;26.50;;;;;;4889983;29;20477;-66
2023/07/19 00:43:19;;;;;;;17.42;3.55;;;45.90;27.20;;;;;;4890087;29;20028;-68
2023/07/19 00:45:53;;;;;;;16.48;3.85;;;45.90;26.80;;;;;;4890008;29;20132;-67
2023/07/19 00:48:21;;;;;;;14.73;3.90;;;45.80;27.00;;;;;;4888943;29;20024;-67
2023/07/19 00:50:53;;;;;;;11.38;3.85;;;45.70;27.10;;;;;;4888086;29;20393;-65
2023/07/19 00:53:22;;;;;;;12.70;3.67;;;45.60;27.20;;;;;;4872927;29;22015;-69
2023/07/19 00:55:50;;;;;;;12.63;3.63;;;45.50;27.30;;;;;;4890726;29;20017;-70
2023/07/19 00:58:19;;;;;;;14.80;3.80;;;45.50;27.40;;;;;;4890836;29;20009;-73
2023/07/19 01:00:46;;;;;;;17.65;4.28;;;45.50;27.90;;;;;;4890710;29;20028;-68
2023/07/19 01:03:12;;;;;;;39.25;5.25;;;45.50;27.80;;;;;;4890891;29;20069;-71
2023/07/19 01:05:40;;;;;;;25.20;4.38;;;45.30;27.60;;;;;;4893635;29;20051;-70
2023/07/19 01:08:07;;;;;;;21.67;4.22;;;45.20;27.60;;;;;;4893322;29;20087;-69
2023/07/19 01:10:33;;;;;;;16.00;4.18;;;45.10;27.70;;;;;;4894674;29;20025;-69
2023/07/19 01:13:11;;;;;;;20.25;3.67;;;45.00;27.90;;;;;;4877294;29;20386;-69
2023/07/19 01:15:40;;;;;;;12.18;3.30;;;44.90;28.00;;;;;;4894317;29;20386;-68
2023/07/19 01:18:07;;;;;;;35.50;4.15;;;44.90;28.30;;;;;;4894345;29;20019;-68
2023/07/19 01:20:34;;;;;;;39.67;4.38;;;44.70;28.10;;;;;;4894148;29;20590;-68
2023/07/19 01:23:01;;;;;;;26.50;3.90;;;44.60;28.10;;;;;;4893828;29;20032;-68
2023/07/19 01:25:27;;;;;;;24.65;4.00;;;44.50;28.10;;;;;;4894296;29;20021;-69
2023/07/19 01:27:54;;;;;;;14.85;3.20;;;44.50;28.40;;;;;;4894221;29;20120;-69
2023/07/19 01:30:20;;;;;;;38.60;6.05;;;44.40;28.50;;;;;;4893454;29;20035;-67
2023/07/19 01:32:47;;;;;;;16.05;3.20;;;44.40;28.90;;;;;;4894197;29;20055;-67
2023/07/19 01:35:13;;;;;;;19.33;3.38;;;44.20;28.90;;;;;;4893517;29;20017;-67
2023/07/19 01:37:40;;;;;;;25.65;3.80;;;43.90;29.80;;;;;;4892065;29;20021;-69
2023/07/19 01:40:07;;;;;;;15.65;3.53;;;43.70;30.00;;;;;;4893154;29;20036;-66
2023/07/19 01:42:33;;;;;;;15.98;3.53;;;43.50;29.30;;;;;;4893786;29;20021;-67
2023/07/19 01:45:01;;;;;;;13.90;3.67;;;43.30;29.60;;;;;;4893596;29;20104;-66
2023/07/19 01:47:28;;;;;;;20.13;3.50;;;43.10;30.40;;;;;;4894483;29;20057;-67
2023/07/19 01:49:54;;;;;;;15.57;3.33;;;43.00;30.20;;;;;;4893326;29;20024;-66
2023/07/19 01:52:21;;;;;;;25.00;3.83;;;42.90;30.00;;;;;;4893150;29;20020;-68
2023/07/19 01:54:48;;;;;;;19.30;3.30;;;43.30;29.40;;;;;;4893388;29;20021;-66
2023/07/19 01:57:15;;;;;;;21.55;3.63;;;43.80;29.30;;;;;;4893493;29;20023;-68
2023/07/19 01:59:41;;;;;;;36.42;4.40;;;44.10;29.00;;;;;;4894037;29;20019;-68
2023/07/19 02:02:08;;;;;;;17.23;3.42;;;44.10;28.60;;;;;;4893945;29;20486;-67
2023/07/19 02:04:34;;;;;;;20.52;3.75;;;43.70;29.20;;;;;;4894345;29;20031;-68
2023/07/19 02:07:00;;;;;;;28.52;4.03;;;43.30;29.70;;;;;;4892811;29;20572;-66
2023/07/19 02:09:27;;;;;;;25.45;3.65;;;43.00;29.60;;;;;;4891147;29;20033;-68
2023/07/19 02:11:53;;;;;;;20.75;3.70;;;42.70;29.90;;;;;;4892408;29;20103;-67
2023/07/19 02:14:19;;;;;;;22.02;3.45;;;42.50;30.20;;;;;;4894334;29;20016;-66
2023/07/19 02:16:46;;;;;;;19.33;3.65;;;42.40;30.20;;;;;;4893201;29;20103;-67
2023/07/19 02:19:12;;;;;;;9.65;3.55;;;42.20;30.60;;;;;;4894532;29;20281;-67
2023/07/19 02:21:39;;;;;;;16.42;3.75;;;42.10;30.60;;;;;;4891722;29;20044;-67
2023/07/19 02:24:05;;;;;;;15.10;3.60;;;42.00;30.60;;;;;;4893223;29;20020;-69
2023/07/19 02:26:31;;;;;;;12.68;3.50;;;41.90;30.50;;;;;;4893884;29;20024;-67
2023/07/19 02:28:58;;;;;;;18.83;3.83;;;41.80;30.50;;;;;;4892664;29;20032;-67
2023/07/19 02:31:24;;;;;;;23.88;4.25;;;41.80;30.80;;;;;;4892432;29;20120;-69
2023/07/19 02:33:51;;;;;;;14.07;3.53;;;41.70;31.00;;;;;;4893942;29;20358;-67
2023/07/19 02:36:17;;;;;;;16.48;3.55;;;41.60;31.20;;;;;;4893404;29;20024;-66
2023/07/19 02:38:44;;;;;;;15.82;3.35;;;41.60;31.40;;;;;;4892442;29;20048;-67
2023/07/19 02:41:12;;;;;;;15.50;3.20;;;41.40;31.50;;;;;;4892087;29;20017;-69
2023/07/19 02:43:38;;;;;;;24.27;3.78;;;41.30;31.60;;;;;;4893164;29;20017;-71
2023/07/19 02:46:04;;;;;;;19.65;3.88;;;41.20;32.50;;;;;;4893973;29;20594;-67
2023/07/19 02:48:31;;;;;;;17.70;3.00;;;41.20;32.20;;;;;;4893491;29;20032;-68
2023/07/19 02:50:58;;;;;;;17.20;4.10;;;41.00;32.60;;;;;;4893551;29;20066;-68
2023/07/19 02:53:24;;;;;;;12.07;4.00;;;40.90;32.50;;;;;;4893217;29;20023;-68
2023/07/19 02:55:51;;;;;;;15.23;3.50;;;40.80;32.40;;;;;;4892483;29;20017;-67
2023/07/19 02:58:17;;;;;;;14.40;3.65;;;40.80;33.20;;;;;;4892994;29;20037;-67
2023/07/19 03:00:44;;;;;;;19.17;3.03;;;40.60;33.40;;;;;;4892354;29;20452;-70
2023/07/19 03:03:12;;;;;;;17.42;2.90;;;40.50;33.30;;;;;;4892989;29;20478;-68
2023/07/19 03:05:40;;;;;;;11.82;2.97;;;40.40;33.50;;;;;;4891512;29;20533;-68
2023/07/19 03:08:07;;;;;;;14.80;2.92;;;40.30;34.10;;;;;;4891658;29;20024;-67
2023/07/19 03:10:33;;;;;;;18.40;3.03;;;40.20;34.40;;;;;;4892815;29;20056;-67
2023/07/19 03:13:00;;;;;;;14.55;2.67;;;39.90;34.60;;;;;;4892452;29;20025;-67
2023/07/19 03:15:27;;;;;;;16.75;2.72;;;39.90;35.10;;;;;;4892706;29;20495;-68
2023/07/19 03:17:54;;;;;;;9.88;2.60;;;39.80;35.20;;;;;;4892540;29;20426;-66
2023/07/19 03:20:20;;;;;;;11.48;2.55;;;39.70;35.30;;;;;;4891889;29;20040;-66
2023/07/19 03:22:47;;;;;;;9.10;2.58;;;39.70;35.60;;;;;;4890795;29;20043;-66
2023/07/19 03:25:13;;;;;;;25.00;2.88;;;39.60;35.60;;;;;;4891426;29;20047;-65
2023/07/19 03:27:39;;;;;;;16.33;3.33;;;39.60;35.60;;;;;;4874022;29;20076;-65
2023/07/19 03:30:06;;;;;;;12.70;3.08;;;39.50;35.90;;;;;;4890971;29;20427;-65
2023/07/19 03:32:33;;;;;;;17.50;2.63;;;39.50;36.00;;;;;;4891574;29;20460;-66
2023/07/19 03:34:59;;;;;;;19.48;2.95;;;39.40;35.80;;;;;;4891570;29;20507;-65
2023/07/19 03:37:26;;;;;;;21.33;3.35;;;39.40;35.60;;;;;;4891600;29;20020;-65
2023/07/19 03:39:52;;;;;;;25.27;3.10;;;39.30;35.80;;;;;;4891041;29;20028;-66
2023/07/19 03:42:18;;;;;;;21.35;3.20;;;39.30;36.10;;;;;;4891215;29;20059;-66
2023/07/19 03:44:45;;;;;;;22.52;3.30;;;39.20;36.40;;;;;;4890797;29;20053;-67
2023/07/19 03:47:11;;;;;;;17.98;3.30;;;39.10;36.30;;;;;;4892029;29;20035;-67
2023/07/19 03:49:38;;;;;;;29.10;3.70;;;39.00;36.60;;;;;;4891059;29;20521;-66
2023/07/19 03:52:04;;;;;;;13.88;2.67;;;38.90;36.60;;;;;;4890944;29;20063;-66
2023/07/19 03:54:31;;;;;;;29.02;3.40;;;38.80;36.70;;;;;;4874696;29;20076;-68
2023/07/19 03:56:57;;;;;;;12.75;2.67;;;38.80;37.00;;;;;;4891280;29;20126;-70
2023/07/19 03:59:23;;;;;;;15.40;2.78;;;38.80;37.00;;;;;;4889955;29;20084;-70
2023/07/19 04:01:50;;;;;;;27.75;3.10;;;38.70;37.10;;;;;;4891014;29;20051;-72
2023/07/19 04:04:16;;;;;;;16.25;3.10;;;38.70;37.20;;;;;;4892758;29;20525;-68
2023/07/19 04:06:43;;;;;;;8.98;2.55;;;38.60;37.30;;;;;;4891165;29;20556;-66
2023/07/19 04:09:09;;;;;;;13.93;2.67;;;38.60;37.30;;;;;;4892721;29;20122;-67
2023/07/19 04:11:36;;;;;;;13.10;2.65;;;38.60;37.30;;;;;;4891811;29;20150;-68
2023/07/19 04:14:02;;;;;;;14.57;2.50;;;38.50;37.30;;;;;;4875181;29;20940;-66
2023/07/19 04:16:28;;;;;;;12.15;2.70;;;38.50;37.50;;;;;;4891708;29;20074;-66
2023/07/19 04:18:55;;;;;;;21.70;2.97;;;38.40;37.60;;;;;;4892092;29;20045;-68
2023/07/19 04:21:21;;;;;;;17.20;2.63;;;38.40;37.70;;;;;;4891483;29;20045;-70
2023/07/19 04:23:48;;;;;;;14.68;2.88;;;38.30;37.80;;;;;;4888689;29;20539;-66
2023/07/19 04:26:14;;;;;;;18.65;2.40;;;38.30;37.70;;;;;;4891833;29;20051;-67
2023/07/19 04:28:40;;;;;;;20.17;2.85;;;38.20;37.60;;;;;;4890853;29;20073;-66
2023/07/19 04:31:07;;;;;;;24.92;3.65;;;38.20;37.80;;;;;;4891538;29;20440;-69
2023/07/19 04:33:33;;;;;;;21.85;2.97;;;38.20;37.70;;;;;;4891078;29;20126;-68
2023/07/19 04:36:00;;;;;;;12.70;2.13;;;38.10;37.70;;;;;;4891509;29;20507;-68
2023/07/19 04:38:26;;;;;;;8.65;2.45;;;38.10;37.70;;;;;;4891737;29;20499;-67
2023/07/19 04:40:52;;;;;;;12.70;2.67;;;38.00;37.60;;;;;;4896143;29;20130;-66
2023/07/19 04:43:19;;;;;;;10.75;2.50;;;38.00;37.80;;;;;;4878222;29;20086;-67
2023/07/19 04:45:45;;;;;;;10.35;2.25;;;38.00;38.00;;;;;;4894550;29;20566;-67
2023/07/19 04:48:12;;;;;;;14.10;2.70;;;38.00;37.90;;;;;;4895145;29;20147;-70
2023/07/19 04:50:38;;;;;;;12.85;2.80;;;37.90;37.80;;;;;;4894942;29;20071;-69
2023/07/19 04:53:04;;;;;;;7.15;1.98;;;37.90;37.90;;;;;;4895075;29;20542;-67
2023/07/19 04:55:31;;;;;;;12.50;2.75;;;37.90;37.80;;;;;;4895883;29;20192;-67
2023/07/19 04:57:57;;;;;;;17.98;2.50;;;37.90;38.00;;;;;;4894872;29;20166;-66
2023/07/19 05:00:25;;;;;;;11.23;2.40;;;37.80;37.80;;;;;;4895398;29;20062;-69
2023/07/19 05:02:52;;;;;;;12.43;2.33;;;37.80;37.90;;;;;;4895074;29;20059;-68
2023/07/19 05:05:18;;;;;;;10.75;2.25;;;37.80;38.00;;;;;;4895930;29;20058;-63
2023/07/19 05:07:44;;;;;;;11.90;2.42;;;37.80;38.20;;;;;;4893866;29;20051;-65
2023/07/19 05:10:11;;;;;;;18.33;2.53;;;37.70;38.10;;;;;;4894044;29;20109;-67
2023/07/19 05:12:38;;;;;;;12.07;2.58;;;37.70;38.00;;;;;;4893704;29;20110;-64
2023/07/19 05:15:05;;;;;;;12.43;2.30;;;37.70;38.30;;;;;;4894433;29;20067;-63
2023/07/19 05:17:31;;;;;;;24.20;2.90;;;37.60;38.30;;;;;;4895248;29;20055;-67
2023/07/19 05:19:58;;;;;;;16.23;2.92;;;37.60;38.30;;;;;;4895141;29;20403;-68
2023/07/19 05:22:26;;;;;;;13.02;2.25;;;37.50;38.50;;;;;;4893684;29;20050;-68
2023/07/19 05:24:52;;;;;;;15.80;2.38;;;37.50;38.70;;;;;;4893035;29;20139;-70
2023/07/19 05:27:18;;;;;;;16.15;2.70;;;37.50;38.70;;;;;;4894426;29;20053;-69
2023/07/19 05:29:45;;;;;;;21.55;2.40;;;37.50;38.50;;;;;;4890731;29;20569;-67
2023/07/19 05:32:11;;;;;;;17.25;2.45;;;37.50;38.40;;;;;;4893827;29;20068;-68
2023/07/19 05:34:38;;;;;;;11.05;2.20;;;37.40;38.30;;;;;;4894753;29;20180;-67
2023/07/19 05:37:06;;;;;;;12.50;2.30;;;37.40;38.40;;;;;;4894398;29;20162;-67
2023/07/19 05:39:34;;;;;;;13.50;2.42;;;37.40;38.40;;;;;;4893837;29;20051;-66
2023/07/19 05:42:01;;;;;;;8.30;2.17;;;37.40;38.30;;;;;;4893523;29;20076;-68
2023/07/19 05:44:27;;;;;;;17.95;3.17;;;37.50;38.20;;;;;;4876851;29;20535;-68
2023/07/19 05:46:54;;;;;;;11.13;2.75;;;37.50;38.10;;;;;;4894544;29;20143;-66
2023/07/19 05:49:20;;;;;;;16.27;2.45;;;37.40;38.00;;;;;;4893077;29;20055;-70
2023/07/19 05:51:47;;;;;;;12.05;2.33;;;37.50;37.80;;;;;;4891358;29;20072;-67
2023/07/19 05:54:14;;;;;;;8.18;2.08;;;37.50;37.90;;;;;;4893831;29;20152;-68
2023/07/19 05:56:40;;;;;;;9.52;2.17;;;37.50;37.70;;;;;;4893467;29;20056;-69
2023/07/19 05:59:07;;;;;;;9.20;2.25;;;37.50;37.60;;;;;;4893397;29;20475;-68
2023/07/19 06:01:33;;;;;;;9.65;2.58;;;37.50;37.60;;;;;;4893044;29;20077;-67
2023/07/19 06:03:59;;;;;;;6.30;2.33;;;37.50;37.70;;;;;;4893926;29;20434;-69
2023/07/19 06:06:26;;;;;;;9.30;2.45;;;37.50;37.80;;;;;;4893736;29;20062;-69
2023/07/19 06:08:52;;;;;;;16.05;6.78;;;37.50;38.00;;;;;;4893135;29;20072;-67
2023/07/19 06:11:19;;;;;;;9.93;2.30;;;37.50;37.90;;;;;;4893036;29;20146;-68
2023/07/19 06:13:45;;;;;;;10.82;1.83;;;37.40;37.80;;;;;;4877101;29;20058;-67
2023/07/19 06:16:12;;;;;;;9.55;1.83;;;37.40;37.90;;;;;;4895562;29;20059;-68
2023/07/19 06:18:38;;;;;;;5.60;2.00;;;37.40;38.10;;;;;;4895706;29;20059;-66
2023/07/19 06:21:04;;;;;;;4.35;2.10;;;37.40;38.50;;;;;;4895055;29;20145;-66
2023/07/19 06:23:31;;;;;;;8.05;2.00;;;37.30;38.70;;;;;;4892642;29;20066;-69
2023/07/19 06:25:57;;;;;;;5.78;2.20;;;37.30;38.90;;;;;;4893052;29;20050;-69
2023/07/19 06:28:23;;;;;;;10.02;1.90;;;37.20;38.80;;;;;;4892973;29;20068;-68
2023/07/19 06:30:50;;;;;;;9.18;1.83;;;37.20;39.00;;;;;;4892943;29;20145;-67
2023/07/19 06:33:16;;;;;;;8.40;1.77;;;37.10;39.30;;;;;;4893069;29;20052;-69
2023/07/19 06:35:44;;;;;;;6.20;1.92;;;37.00;39.20;;;;;;4893569;29;20439;-68
2023/07/19 06:38:10;;;;;;;4.57;1.70;;;37.00;39.40;;;;;;4892534;29;20058;-70
2023/07/19 06:40:36;;;;;;;7.30;1.63;;;36.90;39.50;;;;;;4892731;29;20154;-68
2023/07/19 06:43:04;;;;;;;3.88;1.48;;;36.90;39.50;;;;;;4891987;29;20060;-67
2023/07/19 06:45:30;;;;;;;10.20;2.25;;;36.80;39.50;;;;;;4892439;29;20080;-71
2023/07/19 06:47:57;;;;;;;4.97;1.95;;;36.70;39.50;;;;;;4892633;29;20089;-68
2023/07/19 06:50:23;;;;;;;5.75;1.80;;;36.80;39.60;;;;;;4892400;29;20481;-68
2023/07/19 06:52:50;;;;;;;5.90;1.73;;;36.70;39.70;;;;;;4892256;29;20063;-68
2023/07/19 06:55:16;;;;;;;3.35;1.65;;;36.70;39.50;;;;;;4892160;29;20102;-68
2023/07/19 06:57:43;;;;;;;4.82;1.52;;;36.80;39.40;;;;;;4892309;29;20494;-66
2023/07/19 07:00:10;;;;;;;7.00;1.58;;;36.70;39.70;;;;;;4891968;29;20055;-69
2023/07/19 07:02:37;;;;;;;5.72;1.85;;;36.70;39.50;;;;;;4891954;29;20059;-67
2023/07/19 07:05:04;;;;;;;7.20;2.25;;;36.70;39.50;;;;;;4892700;29;20049;-67
2023/07/19 07:07:32;;;;;;;7.78;1.80;;;36.70;39.40;;;;;;4892183;29;20052;-68
2023/07/19 07:10:03;;;;;;;5.50;1.55;;;36.70;39.50;;;;;;4892241;29;20057;-66
2023/07/19 07:12:29;;;;;;;6.18;1.70;;;36.70;39.30;;;;;;4891467;29;20089;-68
2023/07/19 07:14:56;;;;;;;4.05;1.70;;;36.60;39.30;;;;;;4891728;29;20070;-68
2023/07/19 07:17:22;;;;;;;4.65;1.85;;;36.60;39.30;;;;;;4893066;29;20113;-68
2023/07/19 07:19:49;;;;;;;7.07;1.70;;;36.60;39.50;;;;;;4890763;29;20060;-68
2023/07/19 07:22:16;;;;;;;2.55;1.45;;;36.60;39.50;;;;;;4892059;29;20059;-67
2023/07/19 07:24:42;;;;;;;6.20;1.67;;;36.60;39.50;;;;;;4891662;29;20059;-67
2023/07/19 07:27:08;;;;;;;4.70;1.63;;;36.50;39.70;;;;;;4891705;29;20056;-70
2023/07/19 07:29:36;;;;;;;5.60;2.03;;;36.50;39.80;;;;;;4890662;29;20601;-67
2023/07/19 07:32:02;;;;;;;8.43;1.85;;;36.50;39.70;;;;;;4891369;29;20580;-68
2023/07/19 07:34:29;;;;;;;5.22;1.83;;;36.50;39.90;;;;;;4892811;29;20502;-69
2023/07/19 07:36:55;;;;;;;6.75;1.52;;;36.50;39.70;;;;;;4890137;29;20054;-68
2023/07/19 07:39:21;;;;;;;2.28;1.35;;;36.50;39.50;;;;;;4891327;29;20120;-68
2023/07/19 07:41:48;;;;;;;5.32;1.70;;;36.50;39.70;;;;;;4890334;29;20556;-67
2023/07/19 07:44:15;;;;;;;4.35;1.85;;;36.40;39.50;;;;;;4892839;29;20127;-67
2023/07/19 07:46:41;;;;;;;5.35;1.70;;;36.40;39.30;;;;;;4891300;29;20072;-68
2023/07/19 07:49:08;;;;;;;4.50;1.88;;;36.40;39.30;;;;;;4891004;29;20086;-68
2023/07/19 07:51:35;;;;;;;6.60;1.63;;;36.40;39.40;;;;;;4891464;29;20072;-67
2023/07/19 07:54:01;;;;;;;2.38;1.42;;;36.30;39.40;;;;;;4889875;29;20052;-68
2023/07/19 07:56:28;;;;;;;6.22;1.50;;;36.30;39.30;;;;;;4891353;29;20061;-67
2023/07/19 07:58:54;;;;;;;4.47;1.80;;;36.20;39.40;;;;;;4890975;29;20063;-71
2023/07/19 08:01:21;;;;;;;4.43;1.65;;;36.30;39.50;;;;;;4891788;29;20498;-69
2023/07/19 08:03:47;;;;;;;8.10;1.70;;;36.30;39.40;;;;;;4891513;29;20155;-67
2023/07/19 08:06:14;;;;;;;5.57;1.60;;;36.20;39.40;;;;;;4891482;29;20067;-70
2023/07/19 08:08:40;;;;;;;4.47;1.45;;;36.20;39.50;;;;;;4891864;29;20050;-66
2023/07/19 08:11:06;;;;;;;4.35;1.50;;;36.10;39.90;;;;;;4891366;29;20078;-67
2023/07/19 08:13:33;;;;;;;5.65;1.40;;;36.10;39.80;;;;;;4890909;29;20057;-66
2023/07/19 08:15:59;;;;;;;4.10;1.85;;;36.20;39.80;;;;;;4890970;29;20101;-70
2023/07/19 08:18:26;;;;;;;6.18;1.83;;;36.00;39.50;;;;;;4889244;29;20147;-68
2023/07/19 08:20:53;;;;;;;4.85;1.50;;;36.10;39.60;;;;;;4891343;29;20543;-67
2023/07/19 08:23:19;;;;;;;3.65;1.80;;;36.00;39.70;;;;;;4891405;29;20104;-67
2023/07/19 08:25:46;;;;;;;3.88;1.30;;;36.00;40.60;;;;;;4891083;29;20057;-66
2023/07/19 08:28:12;;;;;;;6.35;1.80;;;36.00;39.90;;;;;;4890714;29;20072;-68
2023/07/19 08:30:39;;;;;;;5.63;1.67;;;36.00;40.00;;;;;;4890693;29;20262;-68
2023/07/19 08:33:08;;;;;;;4.40;1.73;;;35.90;40.20;;;;;;4874481;29;20403;-66
2023/07/19 08:35:35;;;;;;;8.02;1.55;;;35.90;40.10;;;;;;4890630;29;20087;-68
2023/07/19 08:38:01;;;;;;;4.10;1.60;;;35.80;40.00;;;;;;4889907;29;20058;-68
2023/07/19 08:40:32;;;;;;;6.60;1.45;;;35.80;40.20;;;;;;4891429;29;20426;-66
2023/07/19 08:42:58;;;;;;;4.47;1.50;;;35.80;40.30;;;;;;4891405;29;20061;-69
2023/07/19 08:45:26;;;;;;;3.67;1.60;;;35.80;40.50;;;;;;4890896;29;20057;-67
2023/07/19 08:47:54;;;;;;;5.32;1.50;;;35.80;40.30;;;;;;4890805;29;20078;-67
2023/07/19 08:50:22;;;;;;;5.13;1.80;;;35.80;40.40;;;;;;4890287;29;20055;-69
2023/07/19 08:52:48;;;;;;;5.68;1.85;;;35.80;40.40;;;;;;4890702;29;20066;-67
2023/07/19 08:55:15;;;;;;;6.65;1.48;;;35.70;40.30;;;;;;4874972;29;20118;-68
2023/07/19 08:57:44;;;;;;;4.25;1.30;;;35.70;40.40;;;;;;4890723;29;20059;-67
2023/07/19 09:00:11;;;;;;;3.80;1.67;;;35.70;40.50;;;;;;4892053;29;20120;-67
2023/07/19 09:02:37;;;;;;;3.70;1.40;;;35.70;40.60;;;;;;4874461;29;20548;-67
2023/07/19 09:05:12;;;;;;;5.05;1.55;;;35.70;40.60;;;;;;4893027;29;20048;-67
2023/07/19 09:07:40;;;;;;;3.78;1.50;;;35.60;40.60;;;;;;4889985;29;20121;-66
2023/07/19 09:10:09;;;;;;;5.93;1.30;;;35.70;40.80;;;;;;4891057;29;20084;-68
2023/07/19 09:12:40;;;;;;;6.25;1.48;;;35.60;40.70;;;;;;4890546;29;20478;-67
2023/07/19 09:15:09;;;;;;;4.53;1.88;;;35.60;40.70;;;;;;4890624;29;20148;-67
2023/07/19 09:17:37;;;;;;;6.97;1.70;;;35.60;40.60;;;;;;4892074;29;20137;-65
2023/07/19 09:20:06;;;;;;;3.00;1.52;;;35.60;40.50;;;;;;4891111;29;20057;-66
2023/07/19 09:22:38;;;;;;;5.32;1.85;;;35.60;40.80;;;;;;4890565;29;20066;-66
2023/07/19 09:25:06;;;;;;;6.25;1.80;;;35.60;40.60;;;;;;4891105;29;20063;-68
2023/07/19 09:27:33;;;;;;;2.83;1.33;;;35.60;40.70;;;;;;4894333;29;20117;-66
2023/07/19 09:30:01;;;;;;;7.15;1.45;;;35.60;40.70;;;;;;4894058;29;20061;-67
2023/07/19 09:32:27;;;;;;;4.80;1.30;;;35.60;40.90;;;;;;4893997;29;20078;-71
2023/07/19 09:34:55;;;;;;;10.02;1.58;;;35.60;40.90;;;;;;4894695;29;20063;-68
2023/07/19 09:37:25;;;;;;;2.95;1.52;;;35.50;41.20;;;;;;4893259;29;20117;-67
2023/07/19 09:39:52;;;;;;;5.68;1.73;;;35.50;41.10;;;;;;4893032;29;20426;-67
2023/07/19 09:42:19;;;;;;;6.57;1.55;;;35.50;41.60;;;;;;4893109;29;20532;-67
2023/07/19 09:44:47;;;;;;;3.40;1.60;;;35.50;41.20;;;;;;4893677;29;20097;-68
2023/07/19 09:47:15;;;;;;;6.13;1.88;;;35.40;41.50;;;;;;4893573;29;20087;-68
2023/07/19 09:49:43;;;;;;;3.85;1.10;;;35.40;41.30;;;;;;4894100;29;20098;-70
2023/07/19 09:52:16;;;;;;;3.58;1.67;;;35.30;41.60;;;;;;4894877;29;20127;-67
2023/07/19 09:54:43;;;;;;;2.85;1.30;;;35.30;41.70;;;;;;4895503;29;20071;-67
2023/07/19 09:57:11;;;;;;;7.78;1.35;;;35.20;41.50;;;;;;4892189;29;20056;-67
2023/07/19 09:59:50;;;;;;;6.40;1.67;;;35.20;42.10;;;;;;4894544;29;20062;-66
2023/07/19 10:02:17;;;;;;;3.58;1.40;;;35.10;41.50;;;;;;4893831;29;20541;-67
2023/07/19 10:04:43;;;;;;;2.30;1.50;;;35.10;41.90;;;;;;4893914;29;20420;-66
2023/07/19 10:07:27;;;;;;;3.60;1.60;;;35.10;42.70;;;;;;4893491;29;20067;-69
2023/07/19 10:10:04;;;;;;;4.50;1.50;;;35.00;42.70;;;;;;4892574;29;20059;-68
2023/07/19 10:12:32;;;;;;;4.35;1.38;;;34.90;42.90;;;;;;4891324;29;20615;-68
2023/07/19 10:15:06;;;;;;;3.53;1.40;;;34.80;43.00;;;;;;4892633;29;20062;-66
2023/07/19 10:17:41;;;;;;;2.70;1.50;;;34.80;43.60;;;;;;4892934;29;20426;-67
2023/07/19 10:20:12;;;;;;;4.45;1.45;;;34.70;43.40;;;;;;4893481;29;20121;-66
2023/07/19 10:22:58;;;;;;;4.15;1.60;;;34.60;43.60;;;;;;4892106;29;20064;-67
2023/07/19 10:25:27;;;;;;;7.30;1.80;;;34.60;44.10;;;;;;4893331;29;20065;-67
2023/07/19 10:28:02;;;;;;;7.38;1.67;;;34.60;43.30;;;;;;4892966;29;20088;-66
2023/07/19 10:30:47;;;;;;;7.97;1.30;;;34.50;43.90;;;;;;4892367;29;20080;-71
2023/07/19 10:33:34;;;;;;;8.80;1.75;;;34.30;43.90;;;;;;4876643;29;20062;-67
2023/07/19 10:36:07;;;;;;;;;;;34.30;43.90;;;;;;4894105;29;20061;-66
2023/07/19 10:38:34;;;;;;;4.65;1.33;;;34.40;44.00;;;;;;4891968;29;19947;-69
2023/07/19 10:41:03;;;;;;;3.72;1.35;;;34.30;43.70;;;;;;4892981;29;20074;-66
2023/07/19 10:43:31;;;;;;;5.68;1.58;;;34.30;43.70;;;;;;4892922;29;20153;-67
2023/07/19 10:46:03;;;;;;;5.65;1.30;;;34.30;44.50;;;;;;4892592;29;20085;-70
2023/07/19 10:48:37;;;;;;;3.55;1.50;;;34.30;43.60;;;;;;4892379;29;21150;-68
2023/07/19 10:51:05;;;;;;;4.22;1.58;;;34.20;44.00;;;;;;4892151;29;20608;-67
2023/07/19 10:53:42;;;;;;;8.60;1.77;;;34.20;43.80;;;;;;4892158;29;20392;-66
2023/07/19 10:56:09;;;;;;;6.65;1.65;;;34.10;43.80;;;;;;4891510;29;20159;-65
2023/07/19 10:58:35;;;;;;;6.60;1.58;;;34.00;45.30;;;;;;4891953;29;20548;-67
2023/07/19 11:01:02;;;;;;;4.05;1.42;;;34.10;45.20;;;;;;4892727;29;20073;-66
2023/07/19 11:03:29;;;;;;;5.28;1.40;;;33.90;44.70;;;;;;4893681;29;20152;-69
2023/07/19 11:05:55;;;;;;;3.25;1.55;;;33.90;44.50;;;;;;4894283;29;20083;-68
2023/07/19 11:08:23;;;;;;;5.70;1.60;;;33.90;44.40;;;;;;4891955;29;20082;-68
2023/07/19 11:10:50;;;;;;;4.78;1.40;;;33.90;44.50;;;;;;4891422;29;20081;-66
2023/07/19 11:13:18;;;;;;;5.10;1.38;;;33.90;44.60;;;;;;4890541;29;20121;-67
2023/07/19 11:15:49;;;;;;;15.60;1.70;;;33.80;44.40;;;;;;4892081;29;20056;-68
2023/07/19 11:18:30;;;;;;;3.42;1.30;;;33.80;45.30;;;;;;4891870;29;20118;-67
2023/07/19 11:20:58;;;;;;;6.45;1.60;;;33.80;45.10;;;;;;4891681;29;20100;-67
2023/07/19 11:23:28;;;;;;;5.93;1.45;;;33.80;45.30;;;;;;4892130;29;20432;-67
2023/07/19 11:26:08;;;;;;;7.82;1.48;;;33.80;45.20;;;;;;4891749;29;20075;-67
2023/07/19 11:28:44;;;;;;;176.30;9.13;;;33.70;44.90;;;;;;4891675;29;20069;-68
2023/07/19 11:31:29;;;;;;;60.25;4.43;;;33.70;45.50;;;;;;4890310;29;20081;-66
2023/07/19 11:34:05;;;;;;;8.82;1.58;;;33.60;45.50;;;;;;4891509;29;20084;-68
2023/07/19 11:36:34;;;;;;;4.40;1.70;;;33.50;45.50;;;;;;4892265;29;20070;-69
2023/07/19 11:39:00;;;;;;;5.15;1.70;;;33.50;45.50;;;;;;4891980;29;20100;-68
2023/07/19 11:41:31;;;;;;;10.30;1.77;;;33.40;45.70;;;;;;4892174;29;20080;-66
2023/07/19 11:43:57;;;;;;;4.28;1.40;;;33.40;46.40;;;;;;4890776;29;20100;-66
2023/07/19 11:46:23;;;;;;;7.07;1.65;;;33.30;46.30;;;;;;4891080;29;20063;-67
2023/07/19 11:48:51;;;;;;;7.07;1.42;;;33.30;46.10;;;;;;4890682;29;20079;-67
2023/07/19 11:51:18;;;;;;;4.38;1.60;;;33.30;46.00;;;;;;4891793;29;20490;-67
2023/07/19 11:53:45;;;;;;;35.25;2.70;;;33.20;46.20;;;;;;4891255;29;20077;-67
2023/07/19 11:56:11;;;;;;;21.65;2.17;;;33.20;47.90;;;;;;4891780;29;20068;-67
2023/07/19 11:58:38;;;;;;;11.10;1.70;;;33.10;47.60;;;;;;4891634;29;20143;-66
2023/07/19 12:01:05;;;;;;;11.27;2.53;;;33.10;47.50;;;;;;4891213;29;20106;-67
2023/07/19 12:03:32;;;;;;;14.25;2.85;;;33.00;47.60;;;;;;4891476;29;20211;-68
2023/07/19 12:05:58;;;;;;;18.38;3.08;;;33.00;47.10;;;;;;4892428;29;20078;-66
2023/07/19 12:08:25;;;;;;;17.35;3.90;;;32.90;47.80;;;;;;4890585;29;20066;-69
2023/07/19 12:10:52;;;;;;;12.63;3.00;;;32.80;47.40;;;;;;4891408;29;20087;-67
2023/07/19 12:13:18;;;;;;;14.43;2.88;;;32.80;47.40;;;;;;4890042;29;20448;-66
2023/07/19 12:15:44;;;;;;;8.40;2.30;;;32.80;48.10;;;;;;4890698;29;20146;-71
2023/07/19 12:18:11;;;;;;;8.63;2.03;;;32.80;48.00;;;;;;4891423;29;20211;-67
2023/07/19 12:20:37;;;;;;;11.98;2.50;;;32.70;47.60;;;;;;4891079;29;20067;-68
2023/07/19 12:23:04;;;;;;;8.23;2.10;;;32.70;47.60;;;;;;4891326;29;20153;-66
2023/07/19 12:25:30;;;;;;;14.18;1.90;;;32.70;47.50;;;;;;4891430;29;20070;-65
2023/07/19 12:27:58;;;;;;;6.68;1.92;;;32.70;47.60;;;;;;4890963;29;20432;-67
2023/07/19 12:30:24;;;;;;;18.45;2.90;;;32.70;48.10;;;;;;4890986;29;20084;-67
2023/07/19 12:32:50;;;;;;;4.03;1.77;;;32.70;47.70;;;;;;4890080;29;20072;-68
2023/07/19 12:35:19;;;;;;;10.73;1.92;;;32.60;47.70;;;;;;4891736;29;20543;-68
2023/07/19 12:37:45;;;;;;;10.95;2.15;;;32.60;47.70;;;;;;4890725;29;20068;-67
2023/07/19 12:40:12;;;;;;;11.20;2.15;;;32.60;47.80;;;;;;4890470;29;20454;-69
2023/07/19 12:42:39;;;;;;;8.98;2.30;;;32.60;48.10;;;;;;4891230;29;20069;-67
2023/07/19 12:45:09;;;;;;;8.40;2.17;;;32.50;48.80;;;;;;4890079;29;20068;-69